Overview Statistics Trail Chart Weather Telemetry Raw packets
 

This is the latest recevied weather packets stored in our database for station/object SP3ZBZ-13. If no packets are shown the sender has not sent any weather packets the latest 10 day(s).

<< 35 36 37 38 >>
Time Temp. Humidity Pressure Rain* Wind** Luminosity Snow
1787777750 14.44° C 79% 1019.3 hPa - - - -
1787776849 15.56° C 74% 1019.2 hPa - - - -
1787775948 16.11° C 71% 1019.2 hPa - - - -
1787775046 16.11° C 72% 1019 hPa - - - -
1787774145 16.11° C 70% 1019 hPa - - - -
1787773244 15.56° C 72% 1019 hPa - - - -
1787772343 15° C 76% 1018.9 hPa - - - -
1787771442 15.56° C 75% 1018.9 hPa - - - -
1787770541 15.56° C 74% 1018.8 hPa - - - -
1787768735 16.67° C 69% 1018.6 hPa - - - -
1787767834 17.22° C 67% 1018.5 hPa - - - -
1787766933 18.33° C 62% 1018.4 hPa - - 3 W/m² -
1787766033 19.44° C 59% 1018.4 hPa - - 9 W/m² -
1787765131 20° C 57% 1018.4 hPa - - 19 W/m² -
1787764231 20.56° C 53% 1018.4 hPa - - 30 W/m² -
1787763329 20.56° C 53% 1018.3 hPa - - 40 W/m² -
1787762428 21.11° C 51% 1018.2 hPa - - 51 W/m² -
1787761528 21.67° C 50% 1018.1 hPa - - 71 W/m² -
1787760627 21.67° C 50% 1018.2 hPa - - 104 W/m² -
1787757438 22.22° C 48% 1018.1 hPa - - 228 W/m² -
1787756537 22.22° C 47% 1018.2 hPa - - 265 W/m² -

* Rain since midnight (hover to see other rain measurements)
** Current wind speed in m/s (hover to see current wind gust speed)